createdAt,value
2022-10-01T00:00:47.763Z,62.55
2022-10-01T00:04:06.659Z,62.66
2022-10-01T00:07:14.292Z,62.85
2022-10-01T00:10:17.494Z,63.05
2022-10-01T00:13:20.615Z,63.22
2022-10-01T00:16:24.918Z,63.28
2022-10-01T00:19:30.793Z,63.13
2022-10-01T00:22:37.548Z,63.35
2022-10-01T00:25:40.796Z,63.05
2022-10-01T00:28:47.930Z,63.18
2022-10-01T00:31:50.763Z,63.04
2022-10-01T00:34:53.528Z,62.77
2022-10-01T00:37:56.516Z,62.76
2022-10-01T00:41:01.401Z,62.60
2022-10-01T00:44:24.510Z,62.42
2022-10-01T00:47:31.309Z,62.39
2022-10-01T00:50:34.909Z,62.18
2022-10-01T00:53:38.181Z,62.25
2022-10-01T00:56:42.021Z,61.54
2022-10-01T00:59:47.190Z,61.78
2022-10-01T01:02:50.639Z,61.71
2022-10-01T01:05:54.393Z,61.79
2022-10-01T01:08:57.324Z,61.67
2022-10-01T01:12:07.311Z,61.75
2022-10-01T01:15:15.459Z,61.95
2022-10-01T01:18:21.464Z,62.02
2022-10-01T01:21:27.633Z,61.67
2022-10-01T01:24:39.903Z,61.52
2022-10-01T01:27:47.555Z,61.58
2022-10-01T01:30:52.923Z,61.65
2022-10-01T01:33:56.804Z,61.80
2022-10-01T01:37:01.464Z,61.94
2022-10-01T01:40:09.518Z,62.21
2022-10-01T01:43:16.799Z,61.90
2022-10-01T01:46:20.603Z,62.42
2022-10-01T01:49:31.548Z,62.52
2022-10-01T01:52:34.815Z,62.64
2022-10-01T01:55:38.415Z,62.67
2022-10-01T01:58:41.130Z,62.60
2022-10-01T02:01:44.239Z,62.64
2022-10-01T02:04:54.023Z,63.05
2022-10-01T02:08:13.871Z,63.03
2022-10-01T02:11:25.912Z,63.10
2022-10-01T02:14:35.421Z,63.10
2022-10-01T02:17:46.082Z,63.05
2022-10-01T02:20:52.117Z,63.04
2022-10-01T02:23:58.019Z,63.25
2022-10-01T02:27:03.495Z,63.40
2022-10-01T02:30:08.063Z,63.43
2022-10-01T02:33:13.687Z,63.54
2022-10-01T02:36:17.224Z,63.64
2022-10-01T02:39:22.388Z,63.50
2022-10-01T02:42:28.769Z,63.45
2022-10-01T02:45:34.465Z,63.18
2022-10-01T02:48:37.122Z,63.47
2022-10-01T02:51:43.871Z,63.34
2022-10-01T02:54:50.157Z,63.31
2022-10-01T02:57:53.866Z,63.78
2022-10-01T03:00:59.328Z,63.73
2022-10-01T03:04:02.205Z,63.78
2022-10-01T03:07:05.114Z,63.80
2022-10-01T03:10:08.983Z,63.61
2022-10-01T03:13:11.931Z,63.53
2022-10-01T03:16:14.674Z,64.13
2022-10-01T03:19:18.870Z,63.92
2022-10-01T03:22:22.137Z,63.31
2022-10-01T03:25:25.023Z,64.00
2022-10-01T03:28:28.673Z,63.62
2022-10-01T03:31:32.951Z,63.93
2022-10-01T03:34:35.933Z,63.65
2022-10-01T03:37:40.086Z,63.44
2022-10-01T03:40:43.329Z,63.46
2022-10-01T03:43:46.369Z,63.57
2022-10-01T03:46:51.606Z,63.48
2022-10-01T03:49:57.409Z,63.57
2022-10-01T03:53:00.130Z,63.29
2022-10-01T03:56:04.211Z,63.42
2022-10-01T03:59:07.896Z,63.65
2022-10-01T04:02:10.819Z,63.65
2022-10-01T04:05:13.967Z,63.51
2022-10-01T04:08:20.806Z,63.86
2022-10-01T04:11:26.489Z,63.81
2022-10-01T04:14:29.276Z,64.04
2022-10-01T04:17:31.942Z,63.95
2022-10-01T04:20:35.528Z,63.67
2022-10-01T04:23:38.060Z,64.07
2022-10-01T04:26:41.128Z,63.65
2022-10-01T04:29:43.727Z,63.68
2022-10-01T04:32:46.863Z,63.25
2022-10-01T04:35:49.438Z,63.42
2022-10-01T04:38:52.420Z,63.15
2022-10-01T04:41:57.580Z,63.34
2022-10-01T04:45:00.275Z,63.38
2022-10-01T04:48:03.352Z,63.24
2022-10-01T04:51:06.111Z,63.20
2022-10-01T04:54:08.710Z,63.27
2022-10-01T04:57:14.095Z,63.11
2022-10-01T05:00:18.321Z,62.83
2022-10-01T05:03:20.925Z,62.82
2022-10-01T05:06:23.825Z,62.66
2022-10-01T05:09:26.404Z,62.49
2022-10-01T05:12:29.365Z,62.27
2022-10-01T05:15:32.308Z,62.29
2022-10-01T05:18:34.887Z,62.20
2022-10-01T05:21:43.278Z,61.96
2022-10-01T05:24:46.893Z,61.78
2022-10-01T05:27:49.444Z,61.82
2022-10-01T05:30:52.030Z,61.88
2022-10-01T05:33:54.549Z,61.66
2022-10-01T05:37:00.350Z,61.35
2022-10-01T05:40:03.543Z,61.40
2022-10-01T05:43:06.068Z,61.42
2022-10-01T05:46:09.557Z,60.98
2022-10-01T05:49:12.204Z,61.36
2022-10-01T05:52:15.849Z,61.17
2022-10-01T05:55:18.659Z,61.21
2022-10-01T05:58:21.315Z,61.08
2022-10-01T06:01:23.954Z,60.97
2022-10-01T06:04:26.822Z,60.98
2022-10-01T06:07:31.542Z,60.93
2022-10-01T06:10:36.206Z,60.80
2022-10-01T06:13:39.603Z,60.63
2022-10-01T06:16:42.206Z,60.54
2022-10-01T06:19:44.810Z,60.76
2022-10-01T06:22:53.798Z,60.68
2022-10-01T06:25:58.644Z,60.83
2022-10-01T06:29:02.171Z,60.61
2022-10-01T06:32:04.823Z,60.48
2022-10-01T06:35:08.004Z,60.23
2022-10-01T06:38:10.806Z,59.89
2022-10-01T06:41:13.608Z,59.90
2022-10-01T06:44:16.153Z,59.96
2022-10-01T06:47:19.309Z,59.72
2022-10-01T06:50:22.056Z,59.58
2022-10-01T06:53:26.474Z,58.57
2022-10-01T06:56:29.075Z,56.33
2022-10-01T06:59:31.883Z,61.27
2022-10-01T07:02:34.449Z,63.99
2022-10-01T07:05:37.200Z,63.73
2022-10-01T07:08:39.895Z,61.91
2022-10-01T07:11:42.479Z,60.74
2022-10-01T07:14:45.117Z,59.85
2022-10-01T07:17:51.282Z,57.93
2022-10-01T07:20:56.084Z,56.03
2022-10-01T07:23:58.707Z,58.46
2022-10-01T07:27:06.517Z,62.37
2022-10-01T07:30:10.950Z,65.09
2022-10-01T07:33:17.351Z,64.85
2022-10-01T07:36:20.486Z,63.35
2022-10-01T07:39:24.519Z,60.94
2022-10-01T07:42:27.045Z,58.03
2022-10-01T07:45:29.674Z,57.41
2022-10-01T07:48:32.142Z,60.66
2022-10-01T07:51:36.153Z,64.06
2022-10-01T07:54:38.943Z,64.72
2022-10-01T07:57:41.456Z,62.22
2022-10-01T08:00:44.462Z,60.74
2022-10-01T08:03:48.610Z,57.89
2022-10-01T08:06:51.819Z,59.56
2022-10-01T08:09:54.364Z,63.68
2022-10-01T08:12:59.970Z,62.69
2022-10-01T08:16:03.543Z,61.46
2022-10-01T08:19:07.372Z,58.59
2022-10-01T08:22:09.952Z,56.11
2022-10-01T08:25:12.499Z,59.46
2022-10-01T08:28:15.769Z,62.05
2022-10-01T08:31:18.215Z,59.96
2022-10-01T08:34:23.359Z,56.30
2022-10-01T08:37:26.828Z,57.95
2022-10-01T08:40:30.091Z,60.97
2022-10-01T08:43:35.789Z,63.54
2022-10-01T08:46:38.592Z,62.64
2022-10-01T08:49:42.861Z,60.99
2022-10-01T08:52:50.430Z,58.31
2022-10-01T08:55:54.637Z,58.28
2022-10-01T08:58:58.169Z,60.57
2022-10-01T09:02:00.793Z,62.22
2022-10-01T09:05:05.335Z,62.70
2022-10-01T09:08:14.797Z,60.60
2022-10-01T09:11:29.089Z,57.31
2022-10-01T09:14:36.565Z,58.38
2022-10-01T09:17:52.552Z,60.65
2022-10-01T09:20:57.127Z,61.92
2022-10-01T09:24:03.633Z,62.53
2022-10-01T09:27:09.998Z,59.72
2022-10-01T09:30:15.416Z,57.61
2022-10-01T09:33:19.610Z,59.33
2022-10-01T09:36:25.660Z,60.07
2022-10-01T09:39:30.119Z,61.07
2022-10-01T09:42:32.647Z,61.34
2022-10-01T09:45:36.761Z,61.32
2022-10-01T09:48:42.601Z,61.65
2022-10-01T09:51:48.144Z,61.76
2022-10-01T09:54:52.128Z,62.65
2022-10-01T09:57:58.817Z,62.84
2022-10-01T10:01:03.201Z,58.90
2022-10-01T10:04:05.649Z,57.78
2022-10-01T10:07:11.879Z,58.23
2022-10-01T10:10:23.273Z,59.00
2022-10-01T10:13:34.580Z,59.02
2022-10-01T10:16:43.014Z,59.13
2022-10-01T10:19:48.817Z,59.98
2022-10-01T10:22:51.575Z,59.99
2022-10-01T10:25:54.925Z,59.67
2022-10-01T10:28:58.396Z,59.44
2022-10-01T10:32:04.022Z,59.56
2022-10-01T10:35:10.521Z,59.26
2022-10-01T10:38:17.748Z,59.15
2022-10-01T10:41:25.731Z,59.21
2022-10-01T10:44:34.470Z,59.44
2022-10-01T10:47:43.991Z,59.21
2022-10-01T10:50:46.960Z,58.81
2022-10-01T10:53:50.393Z,59.17
2022-10-01T10:57:00.024Z,58.80
2022-10-01T11:00:07.340Z,58.93
2022-10-01T11:03:14.280Z,59.18
2022-10-01T11:06:18.070Z,59.52
2022-10-01T11:09:21.418Z,59.35
2022-10-01T11:12:29.425Z,58.59
2022-10-01T11:15:42.706Z,58.56
2022-10-01T11:18:57.979Z,58.52
2022-10-01T11:22:09.360Z,57.77
2022-10-01T11:25:30.316Z,57.40
2022-10-01T11:28:39.529Z,57.43
2022-10-01T11:31:47.094Z,57.41
2022-10-01T11:34:56.671Z,56.93
2022-10-01T11:38:17.698Z,56.58
2022-10-01T11:41:24.600Z,56.79
2022-10-01T11:44:29.984Z,56.75
2022-10-01T11:47:36.887Z,56.80
2022-10-01T11:50:42.253Z,56.97
2022-10-01T11:53:47.608Z,57.27
2022-10-01T11:57:11.112Z,57.29
2022-10-01T12:00:14.070Z,56.61
2022-10-01T12:03:20.695Z,56.73
2022-10-01T12:06:31.697Z,56.31
2022-10-01T12:09:38.940Z,56.24
2022-10-01T12:12:46.895Z,56.18
2022-10-01T12:15:53.004Z,56.74
2022-10-01T12:18:57.841Z,56.19
2022-10-01T12:22:03.420Z,56.30
2022-10-01T12:25:11.336Z,56.18
2022-10-01T12:28:18.200Z,55.88
2022-10-01T12:31:25.743Z,54.98
2022-10-01T12:34:32.936Z,54.91
2022-10-01T12:37:43.979Z,54.60
2022-10-01T12:40:50.273Z,54.24
2022-10-01T12:44:03.367Z,54.09
2022-10-01T12:47:18.288Z,53.71
2022-10-01T12:50:32.932Z,53.88
2022-10-01T12:53:39.635Z,54.38
2022-10-01T12:56:45.103Z,54.59
2022-10-01T12:59:53.388Z,55.14
2022-10-01T13:03:18.762Z,55.27
2022-10-01T13:06:27.265Z,55.14
2022-10-01T13:09:34.007Z,55.24
2022-10-01T13:12:45.089Z,55.62
2022-10-01T13:15:48.907Z,55.95
2022-10-01T13:18:57.052Z,56.08
2022-10-01T13:22:07.098Z,56.02
2022-10-01T13:25:19.229Z,55.92
2022-10-01T13:28:26.140Z,55.81
2022-10-01T13:31:34.369Z,55.98
2022-10-01T13:34:39.321Z,55.64
2022-10-01T13:37:43.159Z,55.59
2022-10-01T13:40:56.802Z,55.83
2022-10-01T13:44:04.156Z,56.23
2022-10-01T13:47:09.308Z,56.55
2022-10-01T13:50:20.091Z,56.93
2022-10-01T13:53:24.222Z,57.14
2022-10-01T13:56:29.188Z,57.22
2022-10-01T13:59:33.063Z,57.42
2022-10-01T14:02:37.071Z,57.74
2022-10-01T14:05:40.787Z,58.54
2022-10-01T14:08:46.110Z,59.70
2022-10-01T14:12:09.148Z,60.34
2022-10-01T14:15:33.873Z,61.38
2022-10-01T14:18:39.120Z,61.59
2022-10-01T14:21:48.771Z,60.77
2022-10-01T14:25:02.886Z,60.47
2022-10-01T14:28:18.988Z,59.73
2022-10-01T14:31:28.094Z,59.60
2022-10-01T14:34:39.298Z,59.56
2022-10-01T14:37:41.919Z,59.26
2022-10-01T14:40:47.102Z,59.11
2022-10-01T14:43:49.912Z,59.26
2022-10-01T14:46:53.600Z,59.40
2022-10-01T14:49:56.424Z,60.04
2022-10-01T14:53:07.691Z,60.86
2022-10-01T14:56:14.074Z,61.42
2022-10-01T14:59:19.955Z,62.20
2022-10-01T15:02:23.543Z,62.60
2022-10-01T15:05:27.562Z,60.79
2022-10-01T15:08:36.853Z,58.75
2022-10-01T15:11:44.282Z,59.95
2022-10-01T15:14:47.699Z,61.83
2022-10-01T15:17:50.383Z,62.86
2022-10-01T15:20:58.823Z,60.86
2022-10-01T15:24:03.724Z,58.80
2022-10-01T15:27:07.427Z,59.35
2022-10-01T15:30:13.653Z,61.95
2022-10-01T15:33:20.864Z,63.39
2022-10-01T15:36:23.615Z,60.89
2022-10-01T15:39:29.272Z,59.55
2022-10-01T15:42:32.841Z,59.60
2022-10-01T15:45:35.611Z,62.45
2022-10-01T15:48:38.368Z,64.51
2022-10-01T15:52:06.856Z,61.52
2022-10-01T15:55:14.521Z,62.88
2022-10-01T15:58:19.784Z,61.63
2022-10-01T16:01:23.958Z,58.77
2022-10-01T16:04:27.040Z,59.87
2022-10-01T16:07:30.455Z,61.35
2022-10-01T16:10:34.307Z,64.82
2022-10-01T16:13:40.612Z,65.56
2022-10-01T16:16:43.206Z,62.01
2022-10-01T16:19:46.621Z,62.22
2022-10-01T16:22:49.300Z,62.40
2022-10-01T16:25:52.389Z,60.74
2022-10-01T16:28:55.799Z,59.87
2022-10-01T16:31:58.842Z,61.90
2022-10-01T16:35:22.532Z,64.34
2022-10-01T16:38:25.699Z,62.54
2022-10-01T16:41:28.672Z,61.64
2022-10-01T16:44:31.862Z,61.06
2022-10-01T16:47:36.534Z,60.75
2022-10-01T16:50:42.786Z,61.38
2022-10-01T16:53:46.402Z,58.26
2022-10-01T16:56:50.268Z,60.28
2022-10-01T16:59:53.062Z,62.74
2022-10-01T17:02:58.159Z,64.28
2022-10-01T17:06:00.849Z,62.39
2022-10-01T17:09:03.439Z,60.16
2022-10-01T17:12:06.124Z,59.58
2022-10-01T17:15:11.867Z,62.66
2022-10-01T17:18:14.492Z,63.55
2022-10-01T17:21:17.128Z,62.50
2022-10-01T17:24:22.401Z,61.76
2022-10-01T17:27:27.046Z,60.72
2022-10-01T17:30:29.653Z,60.96
2022-10-01T17:33:32.462Z,61.48
2022-10-01T17:36:35.272Z,60.01
2022-10-01T17:39:38.766Z,63.48
2022-10-01T17:42:41.572Z,64.34
2022-10-01T17:45:46.778Z,62.21
2022-10-01T17:48:50.242Z,61.61
2022-10-01T17:51:53.155Z,62.25
2022-10-01T17:54:55.681Z,61.27
2022-10-01T17:57:58.336Z,61.13
2022-10-01T18:01:01.175Z,61.50
2022-10-01T18:04:05.117Z,61.31
2022-10-01T18:07:08.102Z,60.87
2022-10-01T18:10:11.850Z,60.45
2022-10-01T18:13:15.125Z,60.42
2022-10-01T18:16:19.364Z,60.49
2022-10-01T18:22:46.672Z,63.32
2022-10-01T18:25:49.417Z,65.50
2022-10-01T18:28:52.204Z,63.85
2022-10-01T18:31:57.565Z,63.15
2022-10-01T18:35:00.742Z,62.22
2022-10-01T18:38:10.451Z,61.93
2022-10-01T18:41:17.358Z,61.31
2022-10-01T18:44:20.676Z,61.79
2022-10-01T18:47:27.553Z,61.47
2022-10-01T18:50:40.950Z,61.99
2022-10-01T18:53:52.946Z,61.58
2022-10-01T18:57:05.291Z,61.57
2022-10-01T19:00:09.766Z,61.27
2022-10-01T19:03:21.126Z,61.93
2022-10-01T19:06:28.085Z,61.45
2022-10-01T19:09:38.209Z,60.77
2022-10-01T19:12:47.946Z,61.86
2022-10-01T19:15:57.838Z,61.74
2022-10-01T19:19:10.635Z,61.06
2022-10-01T19:22:17.173Z,61.22
2022-10-01T19:25:22.127Z,61.66
2022-10-01T19:28:32.625Z,61.19
2022-10-01T19:31:41.455Z,61.82
2022-10-01T19:34:48.787Z,63.99
2022-10-01T19:37:52.297Z,63.58
2022-10-01T19:40:56.768Z,63.39
2022-10-01T19:44:00.411Z,63.44
2022-10-01T19:47:07.102Z,62.94
2022-10-01T19:50:18.940Z,62.89
2022-10-01T19:53:26.042Z,63.17
2022-10-01T19:56:29.132Z,62.21
2022-10-01T19:59:31.647Z,61.68
2022-10-01T20:02:38.857Z,61.15
2022-10-01T20:05:44.420Z,61.42
2022-10-01T20:08:52.780Z,62.32
2022-10-01T20:12:01.104Z,63.13
2022-10-01T20:15:09.051Z,63.86
2022-10-01T20:18:16.887Z,63.50
2022-10-01T20:21:30.243Z,63.26
2022-10-01T20:24:46.149Z,63.96
2022-10-01T20:27:54.285Z,63.99
2022-10-01T20:31:00.258Z,63.34
2022-10-01T20:34:06.949Z,63.44
2022-10-01T20:37:18.065Z,63.66
2022-10-01T20:40:24.654Z,63.85
2022-10-01T20:43:30.850Z,64.01
2022-10-01T20:46:35.838Z,63.54
2022-10-01T20:49:43.816Z,63.44
2022-10-01T20:52:52.209Z,63.06
2022-10-01T20:55:56.702Z,63.40
2022-10-01T20:59:02.081Z,63.42
2022-10-01T21:02:23.049Z,63.20
2022-10-01T21:05:26.500Z,63.65
2022-10-01T21:08:38.170Z,63.50
2022-10-01T21:11:44.824Z,63.22
2022-10-01T21:14:50.681Z,62.94
2022-10-01T21:17:57.767Z,62.90
2022-10-01T21:21:09.642Z,62.89
2022-10-01T21:24:22.809Z,63.17
2022-10-01T21:27:32.947Z,63.46
2022-10-01T21:30:41.808Z,63.52
2022-10-01T21:33:48.032Z,63.28
2022-10-01T21:36:58.434Z,63.01
2022-10-01T21:40:06.194Z,63.26
2022-10-01T21:43:11.881Z,64.14
2022-10-01T21:46:19.390Z,63.56
2022-10-01T21:49:28.834Z,63.54
2022-10-01T21:52:39.004Z,63.44
2022-10-01T21:55:49.031Z,63.81
2022-10-01T21:58:56.788Z,64.80
2022-10-01T22:02:04.453Z,65.91
2022-10-01T22:05:11.247Z,65.70
2022-10-01T22:08:22.616Z,66.98
2022-10-01T22:11:27.755Z,66.45
2022-10-01T22:14:30.800Z,66.19
2022-10-01T22:17:33.739Z,64.99
2022-10-01T22:20:39.180Z,64.54
2022-10-01T22:23:44.644Z,64.60
2022-10-01T22:26:49.171Z,65.18
2022-10-01T22:29:56.445Z,64.50
2022-10-01T22:33:05.239Z,65.33
2022-10-01T22:36:11.531Z,64.60
2022-10-01T22:39:19.188Z,64.75
2022-10-01T22:42:25.035Z,65.48
2022-10-01T22:45:32.040Z,68.36
2022-10-01T22:48:47.059Z,67.07
2022-10-01T22:51:57.015Z,65.11
2022-10-01T22:55:07.172Z,65.29
2022-10-01T23:01:40.904Z,65.18
2022-10-01T23:04:51.061Z,64.64
2022-10-01T23:07:58.859Z,64.28
2022-10-01T23:11:06.260Z,65.45
2022-10-01T23:14:13.084Z,65.92
2022-10-01T23:17:18.303Z,64.90
2022-10-01T23:20:27.422Z,64.71
2022-10-01T23:23:31.334Z,64.99
2022-10-01T23:26:40.430Z,65.07
2022-10-01T23:29:53.552Z,64.84
2022-10-01T23:33:16.565Z,64.59
2022-10-01T23:36:28.099Z,65.03
2022-10-01T23:39:43.099Z,64.82
2022-10-01T23:42:52.402Z,65.37
2022-10-01T23:45:59.744Z,64.86
2022-10-01T23:49:05.200Z,64.96
2022-10-01T23:52:13.812Z,65.49
2022-10-01T23:55:53.617Z,68.17
2022-10-01T23:59:01.708Z,67.82
